Gulf Angel — TCA3474 — position and weather

sailwx.info

Track history (hours):
 
Tides and Currents Weather Stations Pressure Air Temp Water Temp Dewpoint Dewpoint Depression Visibility Wind Speed Wind Dir Waves Ship Positions

Gulf Angel

Last reported at 2018-Jun-24 15:00 UTC. Time now 2018-Jun-24 15:03 UTC.
Position N 38°20' E 015°37'.

Length 100 m; draft 3.3 m.

Type: Cargo ship. MMSI: 271044120.

Date/timePositionNaut miles runAvg speedWind from/ knotsBaromVisibWave heightAir tempDewpointWater temp
2018-Jun-24 15:00N 38°20' E 015°37'5 9.0
2018-Jun-24 14:30N 38°24' E 015°33'5 9.9
2018-Jun-24 14:00N 38°27' E 015°29'510.1
2018-Jun-24 13:29N 38°31' E 015°25'510.1
2018-Jun-24 12:59N 38°35' E 015°20'510.1
2018-Jun-24 12:29N 38°39' E 015°16'610.2
2018-Jun-24 11:54N 38°43' E 015°11'321 8.8
2018-Jun-22 23:21N 42°48' E 010°36'410.2
2018-Jun-22 22:58N 42°51' E 010°35'5 0.3
2018-Jun-22 04:28N 42°56' E 010°33'0 0.0
2018-Jun-22 03:58N 42°56' E 010°33'0 0.0
2018-Jun-22 03:28N 42°56' E 010°33'0 0.0
2018-Jun-22 02:58N 42°56' E 010°33'0 0.0
2018-Jun-22 02:28N 42°56' E 010°33'0 0.0
2018-Jun-21 22:28N 42°56' E 010°33'0 0.0
2018-Jun-21 21:58N 42°56' E 010°33'0 0.0
2018-Jun-21 21:28N 42°56' E 010°33'0 0.0
2018-Jun-21 20:46N 42°56' E 010°33'0 0.0
2018-Jun-21 20:28N 42°56' E 010°33'0 0.0
2018-Jun-21 19:58N 42°56' E 010°33'0 0.0
2018-Jun-21 19:28N 42°56' E 010°33'0 0.0
2018-Jun-21 13:19N 42°56' E 010°33'0 0.0
2018-Jun-21 11:58N 42°56' E 010°33'0 0.0
2018-Jun-21 11:19N 42°56' E 010°33'0 0.0
2018-Jun-21 10:52N 42°56' E 010°33'0 0.0
2018-Jun-21 06:13N 42°56' E 010°33'0 0.0
2018-Jun-21 05:55N 42°56' E 010°33'0 0.0
2018-Jun-21 05:25N 42°56' E 010°33'0 0.0
2018-Jun-21 05:00N 42°56' E 010°33'0 0.0
2018-Jun-21 02:56N 42°56' E 010°33'0 0.0
2018-Jun-21 02:30N 42°56' E 010°33'0 0.0
2018-Jun-21 02:00N 42°56' E 010°33'0 0.0
2018-Jun-21 01:31N 42°56' E 010°33'0 0.0
2018-Jun-21 01:00N 42°56' E 010°33'0 0.0
2018-Jun-21 00:30N 42°56' E 010°33'0 0.0
2018-Jun-21 00:01N 42°56' E 010°33'0 0.0
2018-Jun-20 23:27N 42°56' E 010°33'0 0.0
2018-Jun-20 23:00N 42°56' E 010°33'0 0.0
2018-Jun-20 22:30N 42°56' E 010°33'0 0.0
2018-Jun-20 22:01N 42°56' E 010°33'0 0.0
2018-Jun-20 21:31N 42°56' E 010°33'0 0.0
2018-Jun-20 21:01N 42°56' E 010°33'0 0.0
2018-Jun-20 20:30N 42°56' E 010°33'0 0.0
2018-Jun-20 20:00N 42°56' E 010°33'0 0.0
2018-Jun-20 19:30N 42°56' E 010°33'0 0.0
2018-Jun-20 19:00N 42°56' E 010°33'0 0.0
2018-Jun-20 18:30N 42°56' E 010°33'0 0.0
2018-Jun-20 18:00N 42°56' E 010°33'0 0.0
2018-Jun-20 17:30N 42°56' E 010°33'0 0.0
2018-Jun-20 17:01N 42°56' E 010°33'0 0.0
2018-Jun-20 16:13N 42°56' E 010°33'0 0.0
2018-Jun-20 16:00N 42°56' E 010°33'0 0.5
2018-Jun-20 15:20N 42°56' E 010°33'1 0.1
2018-Jun-20 01:47N 42°56' E 010°35'0 0.0
2018-Jun-20 01:23N 42°56' E 010°35'0 0.0
2018-Jun-20 00:32N 42°56' E 010°35'0 0.0
2018-Jun-20 00:24N 42°56' E 010°35'0 0.0
2018-Jun-19 19:50N 42°56' E 010°35'0 0.0
2018-Jun-19 17:47N 42°56' E 010°35'0 0.0
2018-Jun-19 17:23N 42°56' E 010°35'0 0.0
2018-Jun-19 16:47N 42°56' E 010°35'0 0.0
2018-Jun-19 16:29N 42°56' E 010°35'0 0.0
2018-Jun-19 15:53N 42°56' E 010°35'0 0.0
2018-Jun-19 15:29N 42°56' E 010°35'0 0.0
2018-Jun-19 15:00N 42°56' E 010°35'0 0.1
2018-Jun-19 14:30N 42°56' E 010°35'0 0.0
2018-Jun-19 02:32N 42°56' E 010°35'0 0.2
2018-Jun-19 02:24N 42°56' E 010°35'0 0.1
2018-Jun-19 01:53N 42°56' E 010°35'0 0.0
2018-Jun-18 15:54N 42°56' E 010°35'0 0.0
2018-Jun-18 15:14N 42°56' E 010°35'0 0.0
2018-Jun-18 15:00N 42°56' E 010°35'0 0.1
2018-Jun-18 14:29N 42°56' E 010°35'0 0.0
2018-Jun-18 13:56N 42°56' E 010°35'0 0.0
2018-Jun-18 13:30N 42°56' E 010°35'0 0.0
2018-Jun-18 12:56N 42°56' E 010°35'0 0.0
2018-Jun-18 12:30N 42°56' E 010°35'0 0.0
2018-Jun-18 11:59N 42°56' E 010°35'0 0.0
2018-Jun-18 11:20N 42°56' E 010°35'0 0.0
2018-Jun-18 10:59N 42°56' E 010°35'0 0.1
2018-Jun-18 10:29N 42°56' E 010°35'0 0.4
2018-Jun-18 10:00N 42°56' E 010°35'3 5.1
2018-Jun-18 09:23N 42°54' E 010°31'4 9.6
2018-Jun-18 08:58N 42°56' E 010°27'4 9.6
2018-Jun-18 08:30N 42°58' E 010°22'5 9.4
2018-Jun-18 08:00N 43°01' E 010°16'5 9.3
2018-Jun-18 07:30N 43°03' E 010°11'5 9.4
2018-Jun-18 06:59N 43°06' E 010°05'5 9.4
2018-Jun-18 06:30N 43°09' E 010°00'4 9.1
2018-Jun-18 06:01N 43°11' E 009°55'5 9.1
2018-Jun-18 05:31N 43°10' E 009°49'5 9.2
2018-Jun-18 05:00N 43°10' E 009°42'5 9.3
2018-Jun-18 04:30N 43°09' E 009°36'5 9.2
2018-Jun-18 03:59N 43°08' E 009°29'4 9.2
2018-Jun-18 03:31N 43°08' E 009°23'5 9.2
2018-Jun-18 03:00N 43°07' E 009°17'5 9.5
2018-Jun-18 02:30N 43°06' E 009°11'5 9.6
2018-Jun-18 02:00N 43°06' E 009°04'5 9.5
2018-Jun-18 01:30N 43°05' E 008°58'5 9.4
2018-Jun-18 00:59N 43°04' E 008°51'4 9.3
2018-Jun-18 00:30N 43°03' E 008°45'5 9.0
2018-Jun-18 00:00N 43°02' E 008°39'13 9.4
2018-Jun-17 22:34N 43°01' E 008°21'1 9.4
2018-Jun-17 22:30N 43°00' E 008°20'5 9.5
2018-Jun-17 22:00N 42°60' E 008°14'5 9.3
2018-Jun-17 21:30N 42°59' E 008°07'5 9.2
2018-Jun-17 21:00N 42°58' E 008°01'5 9.2
2018-Jun-17 20:31N 42°58' E 007°55'5 9.2
2018-Jun-17 20:01N 42°57' E 007°49'5 9.3
2018-Jun-17 19:31N 42°57' E 007°42'7 9.5
2018-Jun-17 18:45N 42°56' E 007°32'2 9.6
2018-Jun-17 18:30N 42°56' E 007°29'5 9.5
2018-Jun-17 18:00N 42°55' E 007°23'5 9.5
2018-Jun-17 17:30N 42°55' E 007°17'5 9.4
2018-Jun-17 17:00N 42°54' E 007°10'5 9.4
2018-Jun-17 16:30N 42°53' E 007°04'5 9.4
2018-Jun-17 15:59N 42°53' E 006°57'5 9.2
2018-Jun-17 15:30N 42°52' E 006°51'4 9.1
2018-Jun-17 15:00N 42°51' E 006°45'4 8.8
2018-Jun-17 14:30N 42°50' E 006°39'4 8.5
2018-Jun-17 14:01N 42°50' E 006°34'4 8.3
2018-Jun-17 13:30N 42°49' E 006°28'4 7.9
2018-Jun-17 13:00N 42°48' E 006°23'4 7.9
2018-Jun-17 12:30N 42°48' E 006°17'8 7.7
2018-Jun-17 11:31N 42°48' E 006°07'0 7.8
2018-Jun-17 11:30N 42°48' E 006°07'5 7.4
2018-Jun-17 10:48N 42°50' E 005°60'5 7.9
2018-Jun-17 10:11N 42°52' E 005°54'37 8.8
2018-Jun-17 05:55N 43°09' E 005°08'4 9.6
2018-Jun-17 05:30N 43°11' E 005°03'4 8.9
2018-Jun-17 05:00N 43°14' E 005°00'4 9.0
2018-Jun-17 04:30N 43°19' E 004°59'4 8.6
2018-Jun-17 04:00N 43°23' E 004°57'4 7.1
2018-Jun-17 03:30N 43°25' E 004°53'0 0.2
2018-Jun-17 02:56N 43°26' E 004°53'0 0.0
2018-Jun-17 02:29N 43°26' E 004°53'0 0.0
2018-Jun-17 01:59N 43°26' E 004°53'0 0.0
2018-Jun-17 01:29N 43°26' E 004°53'0 0.0
2018-Jun-17 00:59N 43°26' E 004°53'0 0.0
2018-Jun-17 00:29N 43°26' E 004°53'0 0.0
2018-Jun-16 23:59N 43°26' E 004°53'0 0.0
2018-Jun-16 23:29N 43°26' E 004°53'0 0.0
2018-Jun-16 22:59N 43°26' E 004°53'0 0.0
2018-Jun-16 22:29N 43°26' E 004°53'0 0.0
2018-Jun-16 21:59N 43°26' E 004°53'0 0.0
2018-Jun-16 21:23N 43°26' E 004°53'0 0.0
2018-Jun-16 20:59N 43°26' E 004°53'0 0.0
2018-Jun-16 20:29N 43°26' E 004°53'0 0.0
2018-Jun-16 19:59N 43°26' E 004°53'0 0.0
2018-Jun-16 19:29N 43°26' E 004°53'0 0.0
2018-Jun-16 18:59N 43°26' E 004°53'0 0.0
2018-Jun-16 18:29N 43°26' E 004°53'0 0.0
2018-Jun-16 17:59N 43°26' E 004°53'0 0.0
2018-Jun-16 17:26N 43°26' E 004°53'0 0.0
2018-Jun-16 16:53N 43°26' E 004°53'0 0.0
2018-Jun-16 16:26N 43°26' E 004°53'0 0.0
2018-Jun-16 15:59N 43°26' E 004°53'0 0.0
2018-Jun-16 15:26N 43°26' E 004°53'0 0.0
2018-Jun-16 14:59N 43°26' E 004°53'0 0.0
2018-Jun-16 14:29N 43°26' E 004°53'0 0.0
2018-Jun-16 13:59N 43°26' E 004°53'0 0.0
2018-Jun-16 13:29N 43°26' E 004°53'0 0.0
2018-Jun-16 12:59N 43°26' E 004°53'0 0.0
2018-Jun-16 12:29N 43°26' E 004°53'0 0.0
2018-Jun-16 11:59N 43°26' E 004°53'0 0.0
2018-Jun-16 11:29N 43°26' E 004°53'0 0.0
2018-Jun-16 10:59N 43°26' E 004°53'0 0.0
2018-Jun-16 10:29N 43°26' E 004°53'0 0.0
2018-Jun-16 09:59N 43°26' E 004°53'0 0.0
2018-Jun-16 09:29N 43°26' E 004°53'0 0.0
2018-Jun-16 08:59N 43°26' E 004°53'0 0.0
2018-Jun-16 08:29N 43°26' E 004°53'0 0.0
2018-Jun-16 07:59N 43°26' E 004°53'0 0.0
2018-Jun-16 07:29N 43°26' E 004°53'0 0.0
2018-Jun-16 06:59N 43°26' E 004°53'0 0.0
2018-Jun-16 06:29N 43°26' E 004°53'0 0.0
2018-Jun-16 05:56N 43°26' E 004°53'0 0.0
2018-Jun-16 05:29N 43°26' E 004°53'0 0.0
2018-Jun-16 04:56N 43°26' E 004°53'0 0.0
2018-Jun-16 04:29N 43°26' E 004°53'0 0.0
2018-Jun-16 03:59N 43°26' E 004°53'0 0.0
2018-Jun-16 03:29N 43°26' E 004°53'0 0.0
2018-Jun-16 02:59N 43°26' E 004°53'0 0.0
2018-Jun-16 02:29N 43°26' E 004°53'0 0.0
2018-Jun-16 01:59N 43°26' E 004°53'0 0.0
2018-Jun-16 01:29N 43°26' E 004°53'0 0.0
2018-Jun-16 00:59N 43°26' E 004°53'0 0.0
2018-Jun-16 00:29N 43°26' E 004°53'0 0.0
2018-Jun-15 23:59N 43°26' E 004°53'0 0.0
2018-Jun-15 23:26N 43°26' E 004°53'0 0.0
2018-Jun-15 22:59N 43°26' E 004°53'0 0.0
2018-Jun-15 22:29N 43°26' E 004°53'0 0.0
2018-Jun-15 21:56N 43°26' E 004°53'0 0.0
2018-Jun-15 21:29N 43°26' E 004°53'0 0.0
2018-Jun-15 20:59N 43°26' E 004°53'0 0.0
2018-Jun-15 20:29N 43°26' E 004°53'0 0.0
2018-Jun-15 19:56N 43°26' E 004°53'0 0.0
2018-Jun-15 19:29N 43°26' E 004°53'0 0.0
2018-Jun-15 18:56N 43°26' E 004°53'0 0.0
2018-Jun-15 18:29N 43°26' E 004°53'0 0.0
2018-Jun-15 17:59N 43°26' E 004°53'0 0.0
2018-Jun-15 17:29N 43°26' E 004°53'0 0.0
2018-Jun-15 16:59N 43°26' E 004°53'0 0.0
2018-Jun-15 16:26N 43°26' E 004°53'0 0.0
2018-Jun-15 15:59N 43°26' E 004°53'0 0.0
2018-Jun-15 15:26N 43°26' E 004°53'0 0.0
2018-Jun-15 14:59N 43°26' E 004°53'0 0.0
2018-Jun-15 14:29N 43°26' E 004°53'0 0.0
2018-Jun-15 13:56N 43°26' E 004°53'0 0.0
2018-Jun-15 13:29N 43°26' E 004°53'0 0.0
2018-Jun-15 12:59N 43°26' E 004°53'0 0.0
2018-Jun-15 12:26N 43°26' E 004°53'0 0.0
2018-Jun-15 11:59N 43°26' E 004°53'0 0.0
2018-Jun-15 11:29N 43°26' E 004°53'0 0.0
2018-Jun-15 10:59N 43°26' E 004°53'0 0.0
2018-Jun-15 10:29N 43°26' E 004°53'0 0.0
2018-Jun-15 09:59N 43°26' E 004°53'0 0.0
2018-Jun-15 09:29N 43°26' E 004°53'0 0.0
2018-Jun-15 08:59N 43°26' E 004°53'0 0.0
2018-Jun-15 08:29N 43°26' E 004°53'0 0.0
2018-Jun-15 07:59N 43°26' E 004°53'0 0.0
2018-Jun-15 07:29N 43°26' E 004°53'0 0.0
2018-Jun-15 06:59N 43°26' E 004°53'0 0.0
2018-Jun-15 06:23N 43°26' E 004°53'0 0.0
2018-Jun-15 05:59N 43°26' E 004°53'0 0.0
2018-Jun-15 05:29N 43°26' E 004°53'0 0.0
2018-Jun-15 04:56N 43°26' E 004°53'0 0.0
2018-Jun-15 04:29N 43°26' E 004°53'0 0.0
2018-Jun-15 03:59N 43°26' E 004°53'0 0.0
2018-Jun-15 03:29N 43°26' E 004°53'0 0.0
2018-Jun-15 02:56N 43°26' E 004°53'0 0.0
2018-Jun-15 02:29N 43°26' E 004°53'0 0.0
2018-Jun-15 01:59N 43°26' E 004°53'0 0.0
2018-Jun-15 01:26N 43°26' E 004°53'0 0.0
2018-Jun-15 00:59N 43°26' E 004°53'0 0.0
2018-Jun-15 00:26N 43°26' E 004°53'0 0.0
2018-Jun-14 23:59N 43°26' E 004°53'0 0.0
2018-Jun-14 23:26N 43°26' E 004°53'0 0.0
2018-Jun-14 22:59N 43°26' E 004°53'0 0.0
2018-Jun-14 22:29N 43°26' E 004°53'0 0.0
2018-Jun-14 21:59N 43°26' E 004°53'0 0.0
2018-Jun-14 21:29N 43°26' E 004°53'0 0.0
2018-Jun-14 20:59N 43°26' E 004°53'0 0.0
2018-Jun-14 20:26N 43°26' E 004°53'0 0.0
2018-Jun-14 19:59N 43°26' E 004°53'0 0.0
2018-Jun-14 19:29N 43°26' E 004°53'0 0.0
2018-Jun-14 18:59N 43°26' E 004°53'0 0.0
2018-Jun-14 18:29N 43°26' E 004°53'0 0.0
2018-Jun-14 17:59N 43°26' E 004°53'0 0.0
2018-Jun-14 17:29N 43°26' E 004°53'0 0.0
2018-Jun-14 16:59N 43°26' E 004°53'0 0.0
2018-Jun-14 16:26N 43°26' E 004°53'0 0.0
2018-Jun-14 15:59N 43°26' E 004°53'0 0.0
2018-Jun-14 15:29N 43°26' E 004°53'  
Track history (hours):
 
Tides and Currents Weather Stations Pressure Air Temp Water Temp Dewpoint Dewpoint Depression Visibility Wind Speed Wind Dir Waves Ship Positions

Gulf Angel

Last reported at 2018-Jun-24 15:00 UTC. Time now 2018-Jun-24 15:03 UTC.
Position N 38°20' E 015°37'.

Length 100 m; draft 3.3 m.

Type: Cargo ship. MMSI: 271044120.

Date/timePositionNaut miles runAvg speedWind from/ knotsBaromVisibWave heightAir tempDewpointWater temp
2018-Jun-24 15:00N 38°20' E 015°37'5 9.0
2018-Jun-24 14:30N 38°24' E 015°33'5 9.9
2018-Jun-24 14:00N 38°27' E 015°29'510.1
2018-Jun-24 13:29N 38°31' E 015°25'510.1
2018-Jun-24 12:59N 38°35' E 015°20'510.1
2018-Jun-24 12:29N 38°39' E 015°16'610.2
2018-Jun-24 11:54N 38°43' E 015°11'321 8.8
2018-Jun-22 23:21N 42°48' E 010°36'410.2
2018-Jun-22 22:58N 42°51' E 010°35'5 0.3
2018-Jun-22 04:28N 42°56' E 010°33'0 0.0
2018-Jun-22 03:58N 42°56' E 010°33'0 0.0
2018-Jun-22 03:28N 42°56' E 010°33'0 0.0
2018-Jun-22 02:58N 42°56' E 010°33'0 0.0
2018-Jun-22 02:28N 42°56' E 010°33'0 0.0
2018-Jun-21 22:28N 42°56' E 010°33'0 0.0
2018-Jun-21 21:58N 42°56' E 010°33'0 0.0
2018-Jun-21 21:28N 42°56' E 010°33'0 0.0
2018-Jun-21 20:46N 42°56' E 010°33'0 0.0
2018-Jun-21 20:28N 42°56' E 010°33'0 0.0
2018-Jun-21 19:58N 42°56' E 010°33'0 0.0
2018-Jun-21 19:28N 42°56' E 010°33'0 0.0
2018-Jun-21 13:19N 42°56' E 010°33'0 0.0
2018-Jun-21 11:58N 42°56' E 010°33'0 0.0
2018-Jun-21 11:19N 42°56' E 010°33'0 0.0
2018-Jun-21 10:52N 42°56' E 010°33'0 0.0
2018-Jun-21 06:13N 42°56' E 010°33'0 0.0
2018-Jun-21 05:55N 42°56' E 010°33'0 0.0
2018-Jun-21 05:25N 42°56' E 010°33'0 0.0
2018-Jun-21 05:00N 42°56' E 010°33'0 0.0
2018-Jun-21 02:56N 42°56' E 010°33'0 0.0
2018-Jun-21 02:30N 42°56' E 010°33'0 0.0
2018-Jun-21 02:00N 42°56' E 010°33'0 0.0
2018-Jun-21 01:31N 42°56' E 010°33'0 0.0
2018-Jun-21 01:00N 42°56' E 010°33'0 0.0
2018-Jun-21 00:30N 42°56' E 010°33'0 0.0
2018-Jun-21 00:01N 42°56' E 010°33'0 0.0
2018-Jun-20 23:27N 42°56' E 010°33'0 0.0
2018-Jun-20 23:00N 42°56' E 010°33'0 0.0
2018-Jun-20 22:30N 42°56' E 010°33'0 0.0
2018-Jun-20 22:01N 42°56' E 010°33'0 0.0
2018-Jun-20 21:31N 42°56' E 010°33'0 0.0
2018-Jun-20 21:01N 42°56' E 010°33'0 0.0
2018-Jun-20 20:30N 42°56' E 010°33'0 0.0
2018-Jun-20 20:00N 42°56' E 010°33'0 0.0
2018-Jun-20 19:30N 42°56' E 010°33'0 0.0
2018-Jun-20 19:00N 42°56' E 010°33'0 0.0
2018-Jun-20 18:30N 42°56' E 010°33'0 0.0
2018-Jun-20 18:00N 42°56' E 010°33'0 0.0
2018-Jun-20 17:30N 42°56' E 010°33'0 0.0
2018-Jun-20 17:01N 42°56' E 010°33'0 0.0
2018-Jun-20 16:13N 42°56' E 010°33'0 0.0
2018-Jun-20 16:00N 42°56' E 010°33'0 0.5
2018-Jun-20 15:20N 42°56' E 010°33'1 0.1
2018-Jun-20 01:47N 42°56' E 010°35'0 0.0
2018-Jun-20 01:23N 42°56' E 010°35'0 0.0
2018-Jun-20 00:32N 42°56' E 010°35'0 0.0
2018-Jun-20 00:24N 42°56' E 010°35'0 0.0
2018-Jun-19 19:50N 42°56' E 010°35'0 0.0
2018-Jun-19 17:47N 42°56' E 010°35'0 0.0
2018-Jun-19 17:23N 42°56' E 010°35'0 0.0
2018-Jun-19 16:47N 42°56' E 010°35'0 0.0
2018-Jun-19 16:29N 42°56' E 010°35'0 0.0
2018-Jun-19 15:53N 42°56' E 010°35'0 0.0
2018-Jun-19 15:29N 42°56' E 010°35'0 0.0
2018-Jun-19 15:00N 42°56' E 010°35'0 0.1
2018-Jun-19 14:30N 42°56' E 010°35'0 0.0
2018-Jun-19 02:32N 42°56' E 010°35'0 0.2
2018-Jun-19 02:24N 42°56' E 010°35'0 0.1
2018-Jun-19 01:53N 42°56' E 010°35'0 0.0
2018-Jun-18 15:54N 42°56' E 010°35'0 0.0
2018-Jun-18 15:14N 42°56' E 010°35'0 0.0
2018-Jun-18 15:00N 42°56' E 010°35'0 0.1
2018-Jun-18 14:29N 42°56' E 010°35'0 0.0
2018-Jun-18 13:56N 42°56' E 010°35'0 0.0
2018-Jun-18 13:30N 42°56' E 010°35'0 0.0
2018-Jun-18 12:56N 42°56' E 010°35'0 0.0
2018-Jun-18 12:30N 42°56' E 010°35'0 0.0
2018-Jun-18 11:59N 42°56' E 010°35'0 0.0
2018-Jun-18 11:20N 42°56' E 010°35'0 0.0
2018-Jun-18 10:59N 42°56' E 010°35'0 0.1
2018-Jun-18 10:29N 42°56' E 010°35'0 0.4
2018-Jun-18 10:00N 42°56' E 010°35'3 5.1
2018-Jun-18 09:23N 42°54' E 010°31'4 9.6
2018-Jun-18 08:58N 42°56' E 010°27'4 9.6
2018-Jun-18 08:30N 42°58' E 010°22'5 9.4
2018-Jun-18 08:00N 43°01' E 010°16'5 9.3
2018-Jun-18 07:30N 43°03' E 010°11'5 9.4
2018-Jun-18 06:59N 43°06' E 010°05'5 9.4
2018-Jun-18 06:30N 43°09' E 010°00'4 9.1
2018-Jun-18 06:01N 43°11' E 009°55'5 9.1
2018-Jun-18 05:31N 43°10' E 009°49'5 9.2
2018-Jun-18 05:00N 43°10' E 009°42'5 9.3
2018-Jun-18 04:30N 43°09' E 009°36'5 9.2
2018-Jun-18 03:59N 43°08' E 009°29'4 9.2
2018-Jun-18 03:31N 43°08' E 009°23'5 9.2
2018-Jun-18 03:00N 43°07' E 009°17'5 9.5
2018-Jun-18 02:30N 43°06' E 009°11'5 9.6
2018-Jun-18 02:00N 43°06' E 009°04'5 9.5
2018-Jun-18 01:30N 43°05' E 008°58'5 9.4
2018-Jun-18 00:59N 43°04' E 008°51'4 9.3
2018-Jun-18 00:30N 43°03' E 008°45'5 9.0
2018-Jun-18 00:00N 43°02' E 008°39'13 9.4
2018-Jun-17 22:34N 43°01' E 008°21'1 9.4
2018-Jun-17 22:30N 43°00' E 008°20'5 9.5
2018-Jun-17 22:00N 42°60' E 008°14'5 9.3
2018-Jun-17 21:30N 42°59' E 008°07'5 9.2
2018-Jun-17 21:00N 42°58' E 008°01'5 9.2
2018-Jun-17 20:31N 42°58' E 007°55'5 9.2
2018-Jun-17 20:01N 42°57' E 007°49'5 9.3
2018-Jun-17 19:31N 42°57' E 007°42'7 9.5
2018-Jun-17 18:45N 42°56' E 007°32'2 9.6
2018-Jun-17 18:30N 42°56' E 007°29'5 9.5
2018-Jun-17 18:00N 42°55' E 007°23'5 9.5
2018-Jun-17 17:30N 42°55' E 007°17'5 9.4
2018-Jun-17 17:00N 42°54' E 007°10'5 9.4
2018-Jun-17 16:30N 42°53' E 007°04'5 9.4
2018-Jun-17 15:59N 42°53' E 006°57'5 9.2
2018-Jun-17 15:30N 42°52' E 006°51'4 9.1
2018-Jun-17 15:00N 42°51' E 006°45'4 8.8
2018-Jun-17 14:30N 42°50' E 006°39'4 8.5
2018-Jun-17 14:01N 42°50' E 006°34'4 8.3
2018-Jun-17 13:30N 42°49' E 006°28'4 7.9
2018-Jun-17 13:00N 42°48' E 006°23'4 7.9
2018-Jun-17 12:30N 42°48' E 006°17'8 7.7
2018-Jun-17 11:31N 42°48' E 006°07'0 7.8
2018-Jun-17 11:30N 42°48' E 006°07'5 7.4
2018-Jun-17 10:48N 42°50' E 005°60'5 7.9
2018-Jun-17 10:11N 42°52' E 005°54'37 8.8
2018-Jun-17 05:55N 43°09' E 005°08'4 9.6
2018-Jun-17 05:30N 43°11' E 005°03'4 8.9
2018-Jun-17 05:00N 43°14' E 005°00'4 9.0
2018-Jun-17 04:30N 43°19' E 004°59'4 8.6
2018-Jun-17 04:00N 43°23' E 004°57'4 7.1
2018-Jun-17 03:30N 43°25' E 004°53'0 0.2
2018-Jun-17 02:56N 43°26' E 004°53'0 0.0
2018-Jun-17 02:29N 43°26' E 004°53'0 0.0
2018-Jun-17 01:59N 43°26' E 004°53'0 0.0
2018-Jun-17 01:29N 43°26' E 004°53'0 0.0
2018-Jun-17 00:59N 43°26' E 004°53'0 0.0
2018-Jun-17 00:29N 43°26' E 004°53'0 0.0
2018-Jun-16 23:59N 43°26' E 004°53'0 0.0
2018-Jun-16 23:29N 43°26' E 004°53'0 0.0
2018-Jun-16 22:59N 43°26' E 004°53'0 0.0
2018-Jun-16 22:29N 43°26' E 004°53'0 0.0
2018-Jun-16 21:59N 43°26' E 004°53'0 0.0
2018-Jun-16 21:23N 43°26' E 004°53'0 0.0
2018-Jun-16 20:59N 43°26' E 004°53'0 0.0
2018-Jun-16 20:29N 43°26' E 004°53'0 0.0
2018-Jun-16 19:59N 43°26' E 004°53'0 0.0
2018-Jun-16 19:29N 43°26' E 004°53'0 0.0
2018-Jun-16 18:59N 43°26' E 004°53'0 0.0
2018-Jun-16 18:29N 43°26' E 004°53'0 0.0
2018-Jun-16 17:59N 43°26' E 004°53'0 0.0
2018-Jun-16 17:26N 43°26' E 004°53'0 0.0
2018-Jun-16 16:53N 43°26' E 004°53'0 0.0
2018-Jun-16 16:26N 43°26' E 004°53'0 0.0
2018-Jun-16 15:59N 43°26' E 004°53'0 0.0
2018-Jun-16 15:26N 43°26' E 004°53'0 0.0
2018-Jun-16 14:59N 43°26' E 004°53'0 0.0
2018-Jun-16 14:29N 43°26' E 004°53'0 0.0
2018-Jun-16 13:59N 43°26' E 004°53'0 0.0
2018-Jun-16 13:29N 43°26' E 004°53'0 0.0
2018-Jun-16 12:59N 43°26' E 004°53'0 0.0
2018-Jun-16 12:29N 43°26' E 004°53'0 0.0
2018-Jun-16 11:59N 43°26' E 004°53'0 0.0
2018-Jun-16 11:29N 43°26' E 004°53'0 0.0
2018-Jun-16 10:59N 43°26' E 004°53'0 0.0
2018-Jun-16 10:29N 43°26' E 004°53'0 0.0
2018-Jun-16 09:59N 43°26' E 004°53'0 0.0
2018-Jun-16 09:29N 43°26' E 004°53'0 0.0
2018-Jun-16 08:59N 43°26' E 004°53'0 0.0
2018-Jun-16 08:29N 43°26' E 004°53'0 0.0
2018-Jun-16 07:59N 43°26' E 004°53'0 0.0
2018-Jun-16 07:29N 43°26' E 004°53'0 0.0
2018-Jun-16 06:59N 43°26' E 004°53'0 0.0
2018-Jun-16 06:29N 43°26' E 004°53'0 0.0
2018-Jun-16 05:56N 43°26' E 004°53'0 0.0
2018-Jun-16 05:29N 43°26' E 004°53'0 0.0
2018-Jun-16 04:56N 43°26' E 004°53'0 0.0
2018-Jun-16 04:29N 43°26' E 004°53'0 0.0
2018-Jun-16 03:59N 43°26' E 004°53'0 0.0
2018-Jun-16 03:29N 43°26' E 004°53'0 0.0
2018-Jun-16 02:59N 43°26' E 004°53'0 0.0
2018-Jun-16 02:29N 43°26' E 004°53'0 0.0
2018-Jun-16 01:59N 43°26' E 004°53'0 0.0
2018-Jun-16 01:29N 43°26' E 004°53'0 0.0
2018-Jun-16 00:59N 43°26' E 004°53'0 0.0
2018-Jun-16 00:29N 43°26' E 004°53'0 0.0
2018-Jun-15 23:59N 43°26' E 004°53'0 0.0
2018-Jun-15 23:26N 43°26' E 004°53'0 0.0
2018-Jun-15 22:59N 43°26' E 004°53'0 0.0
2018-Jun-15 22:29N 43°26' E 004°53'0 0.0
2018-Jun-15 21:56N 43°26' E 004°53'0 0.0
2018-Jun-15 21:29N 43°26' E 004°53'0 0.0
2018-Jun-15 20:59N 43°26' E 004°53'0 0.0
2018-Jun-15 20:29N 43°26' E 004°53'0 0.0
2018-Jun-15 19:56N 43°26' E 004°53'0 0.0
2018-Jun-15 19:29N 43°26' E 004°53'0 0.0
2018-Jun-15 18:56N 43°26' E 004°53'0 0.0
2018-Jun-15 18:29N 43°26' E 004°53'0 0.0
2018-Jun-15 17:59N 43°26' E 004°53'0 0.0
2018-Jun-15 17:29N 43°26' E 004°53'0 0.0
2018-Jun-15 16:59N 43°26' E 004°53'0 0.0
2018-Jun-15 16:26N 43°26' E 004°53'0 0.0
2018-Jun-15 15:59N 43°26' E 004°53'0 0.0
2018-Jun-15 15:26N 43°26' E 004°53'0 0.0
2018-Jun-15 14:59N 43°26' E 004°53'0 0.0
2018-Jun-15 14:29N 43°26' E 004°53'0 0.0
2018-Jun-15 13:56N 43°26' E 004°53'0 0.0
2018-Jun-15 13:29N 43°26' E 004°53'0 0.0
2018-Jun-15 12:59N 43°26' E 004°53'0 0.0
2018-Jun-15 12:26N 43°26' E 004°53'0 0.0
2018-Jun-15 11:59N 43°26' E 004°53'0 0.0
2018-Jun-15 11:29N 43°26' E 004°53'0 0.0
2018-Jun-15 10:59N 43°26' E 004°53'0 0.0
2018-Jun-15 10:29N 43°26' E 004°53'0 0.0
2018-Jun-15 09:59N 43°26' E 004°53'0 0.0
2018-Jun-15 09:29N 43°26' E 004°53'0 0.0
2018-Jun-15 08:59N 43°26' E 004°53'0 0.0
2018-Jun-15 08:29N 43°26' E 004°53'0 0.0
2018-Jun-15 07:59N 43°26' E 004°53'0 0.0
2018-Jun-15 07:29N 43°26' E 004°53'0 0.0
2018-Jun-15 06:59N 43°26' E 004°53'0 0.0
2018-Jun-15 06:23N 43°26' E 004°53'0 0.0
2018-Jun-15 05:59N 43°26' E 004°53'0 0.0
2018-Jun-15 05:29N 43°26' E 004°53'0 0.0
2018-Jun-15 04:56N 43°26' E 004°53'0 0.0
2018-Jun-15 04:29N 43°26' E 004°53'0 0.0
2018-Jun-15 03:59N 43°26' E 004°53'0 0.0
2018-Jun-15 03:29N 43°26' E 004°53'0 0.0
2018-Jun-15 02:56N 43°26' E 004°53'0 0.0
2018-Jun-15 02:29N 43°26' E 004°53'0 0.0
2018-Jun-15 01:59N 43°26' E 004°53'0 0.0
2018-Jun-15 01:26N 43°26' E 004°53'0 0.0
2018-Jun-15 00:59N 43°26' E 004°53'0 0.0
2018-Jun-15 00:26N 43°26' E 004°53'0 0.0
2018-Jun-14 23:59N 43°26' E 004°53'0 0.0
2018-Jun-14 23:26N 43°26' E 004°53'0 0.0
2018-Jun-14 22:59N 43°26' E 004°53'0 0.0
2018-Jun-14 22:29N 43°26' E 004°53'0 0.0
2018-Jun-14 21:59N 43°26' E 004°53'0 0.0
2018-Jun-14 21:29N 43°26' E 004°53'0 0.0
2018-Jun-14 20:59N 43°26' E 004°53'0 0.0
2018-Jun-14 20:26N 43°26' E 004°53'0 0.0
2018-Jun-14 19:59N 43°26' E 004°53'0 0.0
2018-Jun-14 19:29N 43°26' E 004°53'0 0.0
2018-Jun-14 18:59N 43°26' E 004°53'0 0.0
2018-Jun-14 18:29N 43°26' E 004°53'0 0.0
2018-Jun-14 17:59N 43°26' E 004°53'0 0.0
2018-Jun-14 17:29N 43°26' E 004°53'0 0.0
2018-Jun-14 16:59N 43°26' E 004°53'0 0.0
2018-Jun-14 16:26N 43°26' E 004°53'0 0.0
2018-Jun-14 15:59N 43°26' E 004°53'0 0.0
2018-Jun-14 15:29N 43°26' E 004°53'  

Dump ship's entire track history